sensor_id;sensor_type;location;lat;lon;timestamp;P1;durP1;ratioP1;P2;durP2;ratioP2
21492;SDS011;10908;50.690;4.400;2023-05-10T00:01:47;11.50;;;5.25;;
21492;SDS011;10908;50.690;4.400;2023-05-10T00:04:13;13.48;;;6.07;;
21492;SDS011;10908;50.690;4.400;2023-05-10T00:06:39;15.10;;;5.68;;
21492;SDS011;10908;50.690;4.400;2023-05-10T00:09:04;11.00;;;5.90;;
21492;SDS011;10908;50.690;4.400;2023-05-10T00:11:30;14.68;;;6.15;;
21492;SDS011;10908;50.690;4.400;2023-05-10T00:13:56;16.23;;;6.20;;
21492;SDS011;10908;50.690;4.400;2023-05-10T00:16:21;14.10;;;6.28;;
21492;SDS011;10908;50.690;4.400;2023-05-10T00:18:47;15.45;;;6.07;;
21492;SDS011;10908;50.690;4.400;2023-05-10T00:21:13;11.77;;;6.03;;
21492;SDS011;10908;50.690;4.400;2023-05-10T00:23:38;16.95;;;6.80;;
21492;SDS011;10908;50.690;4.400;2023-05-10T00:26:04;16.25;;;6.97;;
21492;SDS011;10908;50.690;4.400;2023-05-10T00:28:30;16.48;;;6.40;;
21492;SDS011;10908;50.690;4.400;2023-05-10T00:30:55;14.40;;;7.45;;
21492;SDS011;10908;50.690;4.400;2023-05-10T00:33:21;13.85;;;6.68;;
21492;SDS011;10908;50.690;4.400;2023-05-10T00:35:47;17.23;;;7.25;;
21492;SDS011;10908;50.690;4.400;2023-05-10T00:38:13;17.25;;;7.63;;
21492;SDS011;10908;50.690;4.400;2023-05-10T00:40:39;13.75;;;6.97;;
21492;SDS011;10908;50.690;4.400;2023-05-10T00:43:05;15.15;;;7.07;;
21492;SDS011;10908;50.690;4.400;2023-05-10T00:45:31;13.10;;;6.93;;
21492;SDS011;10908;50.690;4.400;2023-05-10T00:47:59;13.50;;;7.25;;
21492;SDS011;10908;50.690;4.400;2023-05-10T00:50:27;16.73;;;7.30;;
21492;SDS011;10908;50.690;4.400;2023-05-10T00:52:53;18.83;;;7.88;;
21492;SDS011;10908;50.690;4.400;2023-05-10T00:55:19;14.93;;;7.72;;
21492;SDS011;10908;50.690;4.400;2023-05-10T00:57:45;16.33;;;7.45;;
21492;SDS011;10908;50.690;4.400;2023-05-10T01:00:12;17.55;;;7.47;;
21492;SDS011;10908;50.690;4.400;2023-05-10T01:02:43;18.38;;;7.18;;
21492;SDS011;10908;50.690;4.400;2023-05-10T01:05:09;17.42;;;7.63;;
21492;SDS011;10908;50.690;4.400;2023-05-10T01:07:35;17.63;;;7.95;;
21492;SDS011;10908;50.690;4.400;2023-05-10T01:10:01;15.30;;;7.95;;
21492;SDS011;10908;50.690;4.400;2023-05-10T01:12:27;19.67;;;8.30;;
21492;SDS011;10908;50.690;4.400;2023-05-10T01:14:53;15.25;;;8.10;;
21492;SDS011;10908;50.690;4.400;2023-05-10T01:17:20;17.77;;;9.00;;
21492;SDS011;10908;50.690;4.400;2023-05-10T01:19:46;17.65;;;8.82;;
21492;SDS011;10908;50.690;4.400;2023-05-10T01:22:58;16.48;;;8.65;;
21492;SDS011;10908;50.690;4.400;2023-05-10T01:44:09;19.13;;;8.88;;
21492;SDS011;10908;50.690;4.400;2023-05-10T01:46:42;19.40;;;9.18;;
21492;SDS011;10908;50.690;4.400;2023-05-10T01:49:09;17.27;;;8.57;;
21492;SDS011;10908;50.690;4.400;2023-05-10T01:51:58;16.75;;;8.55;;
21492;SDS011;10908;50.690;4.400;2023-05-10T01:54:28;17.77;;;9.50;;
21492;SDS011;10908;50.690;4.400;2023-05-10T01:56:58;16.75;;;9.02;;
21492;SDS011;10908;50.690;4.400;2023-05-10T01:59:29;18.10;;;9.27;;
21492;SDS011;10908;50.690;4.400;2023-05-10T02:02:01;20.38;;;10.25;;
21492;SDS011;10908;50.690;4.400;2023-05-10T02:04:28;18.73;;;10.20;;
21492;SDS011;10908;50.690;4.400;2023-05-10T02:06:54;15.38;;;9.55;;
21492;SDS011;10908;50.690;4.400;2023-05-10T02:09:21;18.80;;;10.32;;
21492;SDS011;10908;50.690;4.400;2023-05-10T02:11:49;16.85;;;9.80;;
21492;SDS011;10908;50.690;4.400;2023-05-10T02:14:15;19.65;;;10.48;;
21492;SDS011;10908;50.690;4.400;2023-05-10T02:16:43;18.67;;;11.07;;
21492;SDS011;10908;50.690;4.400;2023-05-10T02:19:11;21.52;;;10.48;;
21492;SDS011;10908;50.690;4.400;2023-05-10T02:21:38;19.48;;;10.85;;
21492;SDS011;10908;50.690;4.400;2023-05-10T02:24:05;22.77;;;10.50;;
21492;SDS011;10908;50.690;4.400;2023-05-10T02:26:31;17.30;;;10.02;;
21492;SDS011;10908;50.690;4.400;2023-05-10T02:28:59;22.77;;;10.50;;
21492;SDS011;10908;50.690;4.400;2023-05-10T02:31:28;18.38;;;9.70;;
21492;SDS011;10908;50.690;4.400;2023-05-10T02:33:55;15.88;;;9.88;;
21492;SDS011;10908;50.690;4.400;2023-05-10T02:36:23;18.67;;;10.00;;
21492;SDS011;10908;50.690;4.400;2023-05-10T02:38:52;21.70;;;10.20;;
21492;SDS011;10908;50.690;4.400;2023-05-10T02:41:19;20.30;;;10.40;;
21492;SDS011;10908;50.690;4.400;2023-05-10T02:43:48;16.52;;;9.43;;
21492;SDS011;10908;50.690;4.400;2023-05-10T02:46:17;19.38;;;10.43;;
21492;SDS011;10908;50.690;4.400;2023-05-10T02:48:43;18.77;;;9.60;;
21492;SDS011;10908;50.690;4.400;2023-05-10T02:51:08;18.70;;;9.60;;
21492;SDS011;10908;50.690;4.400;2023-05-10T02:53:40;15.60;;;9.05;;
21492;SDS011;10908;50.690;4.400;2023-05-10T02:56:11;19.92;;;9.35;;
21492;SDS011;10908;50.690;4.400;2023-05-10T02:58:47;17.30;;;9.30;;
21492;SDS011;10908;50.690;4.400;2023-05-10T03:01:12;16.58;;;9.20;;
21492;SDS011;10908;50.690;4.400;2023-05-10T03:03:38;19.33;;;9.55;;
21492;SDS011;10908;50.690;4.400;2023-05-10T03:06:04;17.52;;;9.05;;
21492;SDS011;10908;50.690;4.400;2023-05-10T03:08:29;15.27;;;8.48;;
21492;SDS011;10908;50.690;4.400;2023-05-10T03:11:09;16.35;;;8.68;;
21492;SDS011;10908;50.690;4.400;2023-05-10T03:16:29;13.23;;;8.45;;
21492;SDS011;10908;50.690;4.400;2023-05-10T03:19:06;17.48;;;9.32;;
21492;SDS011;10908;50.690;4.400;2023-05-10T03:21:36;16.33;;;9.30;;
21492;SDS011;10908;50.690;4.400;2023-05-10T03:24:06;18.58;;;10.05;;
21492;SDS011;10908;50.690;4.400;2023-05-10T03:26:33;18.60;;;10.73;;
21492;SDS011;10908;50.690;4.400;2023-05-10T03:29:01;18.85;;;10.13;;
21492;SDS011;10908;50.690;4.400;2023-05-10T03:31:29;22.15;;;11.00;;
21492;SDS011;10908;50.690;4.400;2023-05-10T03:33:55;19.08;;;10.85;;
21492;SDS011;10908;50.690;4.400;2023-05-10T03:36:20;21.20;;;11.65;;
21492;SDS011;10908;50.690;4.400;2023-05-10T03:38:46;20.88;;;11.70;;
21492;SDS011;10908;50.690;4.400;2023-05-10T03:41:12;22.70;;;12.25;;
21492;SDS011;10908;50.690;4.400;2023-05-10T03:43:38;21.77;;;11.93;;
21492;SDS011;10908;50.690;4.400;2023-05-10T03:46:04;22.50;;;11.65;;
21492;SDS011;10908;50.690;4.400;2023-05-10T03:48:31;23.02;;;11.50;;
21492;SDS011;10908;50.690;4.400;2023-05-10T03:50:58;22.08;;;11.18;;
21492;SDS011;10908;50.690;4.400;2023-05-10T03:53:24;20.92;;;10.65;;
21492;SDS011;10908;50.690;4.400;2023-05-10T03:55:50;21.60;;;10.60;;
21492;SDS011;10908;50.690;4.400;2023-05-10T03:58:16;22.00;;;10.98;;
21492;SDS011;10908;50.690;4.400;2023-05-10T04:00:41;24.67;;;11.45;;
21492;SDS011;10908;50.690;4.400;2023-05-10T04:03:10;24.75;;;11.98;;
21492;SDS011;10908;50.690;4.400;2023-05-10T04:05:36;27.45;;;12.20;;
21492;SDS011;10908;50.690;4.400;2023-05-10T04:08:02;28.65;;;12.55;;
21492;SDS011;10908;50.690;4.400;2023-05-10T04:10:28;24.23;;;11.98;;
21492;SDS011;10908;50.690;4.400;2023-05-10T04:12:54;25.00;;;12.68;;
21492;SDS011;10908;50.690;4.400;2023-05-10T04:15:20;23.90;;;12.52;;
21492;SDS011;10908;50.690;4.400;2023-05-10T04:17:46;23.13;;;11.23;;
21492;SDS011;10908;50.690;4.400;2023-05-10T04:20:12;25.35;;;11.07;;
21492;SDS011;10908;50.690;4.400;2023-05-10T04:22:38;20.88;;;10.48;;
21492;SDS011;10908;50.690;4.400;2023-05-10T04:25:04;21.38;;;9.73;;
21492;SDS011;10908;50.690;4.400;2023-05-10T04:27:30;18.55;;;8.52;;
21492;SDS011;10908;50.690;4.400;2023-05-10T04:29:56;20.85;;;7.78;;
21492;SDS011;10908;50.690;4.400;2023-05-10T04:32:22;19.80;;;8.00;;
21492;SDS011;10908;50.690;4.400;2023-05-10T04:34:48;17.20;;;7.20;;
21492;SDS011;10908;50.690;4.400;2023-05-10T04:37:14;14.48;;;6.72;;
21492;SDS011;10908;50.690;4.400;2023-05-10T04:39:39;12.70;;;6.50;;
21492;SDS011;10908;50.690;4.400;2023-05-10T04:42:05;11.45;;;6.68;;
21492;SDS011;10908;50.690;4.400;2023-05-10T04:44:34;16.15;;;6.55;;
21492;SDS011;10908;50.690;4.400;2023-05-10T04:47:00;12.25;;;6.50;;
21492;SDS011;10908;50.690;4.400;2023-05-10T04:49:27;13.13;;;5.90;;
21492;SDS011;10908;50.690;4.400;2023-05-10T04:51:53;11.02;;;5.40;;
21492;SDS011;10908;50.690;4.400;2023-05-10T04:54:19;9.77;;;5.00;;
21492;SDS011;10908;50.690;4.400;2023-05-10T04:56:45;12.85;;;5.07;;
21492;SDS011;10908;50.690;4.400;2023-05-10T04:59:10;11.35;;;5.47;;
21492;SDS011;10908;50.690;4.400;2023-05-10T05:01:36;10.25;;;5.07;;
21492;SDS011;10908;50.690;4.400;2023-05-10T05:04:02;11.68;;;4.70;;
21492;SDS011;10908;50.690;4.400;2023-05-10T05:06:27;10.00;;;4.97;;
21492;SDS011;10908;50.690;4.400;2023-05-10T05:08:53;12.68;;;5.13;;
21492;SDS011;10908;50.690;4.400;2023-05-10T05:11:19;12.50;;;4.97;;
21492;SDS011;10908;50.690;4.400;2023-05-10T05:13:45;11.57;;;5.40;;
21492;SDS011;10908;50.690;4.400;2023-05-10T05:16:11;10.52;;;5.53;;
21492;SDS011;10908;50.690;4.400;2023-05-10T05:18:37;10.15;;;5.10;;
21492;SDS011;10908;50.690;4.400;2023-05-10T05:21:02;10.23;;;5.30;;
21492;SDS011;10908;50.690;4.400;2023-05-10T05:23:28;9.60;;;4.35;;
21492;SDS011;10908;50.690;4.400;2023-05-10T05:25:54;10.30;;;4.47;;
21492;SDS011;10908;50.690;4.400;2023-05-10T05:28:20;9.63;;;4.20;;
21492;SDS011;10908;50.690;4.400;2023-05-10T05:30:46;8.32;;;3.97;;
21492;SDS011;10908;50.690;4.400;2023-05-10T05:33:14;8.25;;;4.28;;
21492;SDS011;10908;50.690;4.400;2023-05-10T05:35:40;7.38;;;3.42;;
21492;SDS011;10908;50.690;4.400;2023-05-10T05:38:07;8.50;;;3.70;;
21492;SDS011;10908;50.690;4.400;2023-05-10T05:40:33;6.95;;;3.08;;
21492;SDS011;10908;50.690;4.400;2023-05-10T05:42:59;8.38;;;3.10;;
21492;SDS011;10908;50.690;4.400;2023-05-10T05:45:25;9.63;;;3.30;;
21492;SDS011;10908;50.690;4.400;2023-05-10T05:47:50;6.57;;;3.10;;
21492;SDS011;10908;50.690;4.400;2023-05-10T05:50:16;8.02;;;3.22;;
21492;SDS011;10908;50.690;4.400;2023-05-10T05:52:42;6.93;;;3.00;;
21492;SDS011;10908;50.690;4.400;2023-05-10T05:55:08;9.95;;;3.10;;
21492;SDS011;10908;50.690;4.400;2023-05-10T05:57:33;9.30;;;2.75;;
21492;SDS011;10908;50.690;4.400;2023-05-10T05:59:59;8.68;;;2.90;;
21492;SDS011;10908;50.690;4.400;2023-05-10T06:02:25;8.00;;;3.35;;
21492;SDS011;10908;50.690;4.400;2023-05-10T06:04:50;8.95;;;3.03;;
21492;SDS011;10908;50.690;4.400;2023-05-10T06:07:19;7.57;;;2.85;;
21492;SDS011;10908;50.690;4.400;2023-05-10T06:09:45;6.70;;;2.90;;
21492;SDS011;10908;50.690;4.400;2023-05-10T06:12:10;7.65;;;2.88;;
21492;SDS011;10908;50.690;4.400;2023-05-10T06:14:36;8.35;;;2.63;;
21492;SDS011;10908;50.690;4.400;2023-05-10T06:17:02;8.43;;;2.70;;
21492;SDS011;10908;50.690;4.400;2023-05-10T06:19:29;5.93;;;2.00;;
21492;SDS011;10908;50.690;4.400;2023-05-10T06:21:55;7.28;;;2.40;;
21492;SDS011;10908;50.690;4.400;2023-05-10T06:24:21;6.70;;;2.40;;
21492;SDS011;10908;50.690;4.400;2023-05-10T06:26:47;4.90;;;1.80;;
21492;SDS011;10908;50.690;4.400;2023-05-10T06:29:15;5.72;;;1.77;;
21492;SDS011;10908;50.690;4.400;2023-05-10T06:31:41;6.90;;;1.83;;
21492;SDS011;10908;50.690;4.400;2023-05-10T06:34:07;4.65;;;1.90;;
21492;SDS011;10908;50.690;4.400;2023-05-10T06:36:33;5.22;;;1.40;;
21492;SDS011;10908;50.690;4.400;2023-05-10T06:38:59;3.72;;;1.27;;
21492;SDS011;10908;50.690;4.400;2023-05-10T06:41:24;5.22;;;1.40;;
21492;SDS011;10908;50.690;4.400;2023-05-10T06:43:50;3.63;;;1.40;;
21492;SDS011;10908;50.690;4.400;2023-05-10T06:46:16;5.35;;;1.40;;
21492;SDS011;10908;50.690;4.400;2023-05-10T06:48:41;3.50;;;1.52;;
21492;SDS011;10908;50.690;4.400;2023-05-10T06:51:07;4.03;;;1.33;;
21492;SDS011;10908;50.690;4.400;2023-05-10T06:53:32;4.82;;;1.80;;
21492;SDS011;10908;50.690;4.400;2023-05-10T06:55:58;3.97;;;1.60;;
21492;SDS011;10908;50.690;4.400;2023-05-10T06:58:24;4.85;;;1.60;;
21492;SDS011;10908;50.690;4.400;2023-05-10T07:00:50;4.53;;;1.80;;
21492;SDS011;10908;50.690;4.400;2023-05-10T07:03:15;6.03;;;1.67;;
21492;SDS011;10908;50.690;4.400;2023-05-10T07:05:41;6.18;;;1.70;;
21492;SDS011;10908;50.690;4.400;2023-05-10T07:08:07;4.03;;;1.60;;
21492;SDS011;10908;50.690;4.400;2023-05-10T07:10:33;4.30;;;1.80;;
21492;SDS011;10908;50.690;4.400;2023-05-10T07:12:59;3.60;;;1.73;;
21492;SDS011;10908;50.690;4.400;2023-05-10T07:15:26;7.70;;;2.10;;
21492;SDS011;10908;50.690;4.400;2023-05-10T07:17:51;4.00;;;1.83;;
21492;SDS011;10908;50.690;4.400;2023-05-10T07:20:17;4.50;;;1.73;;
21492;SDS011;10908;50.690;4.400;2023-05-10T07:22:43;3.58;;;1.65;;
21492;SDS011;10908;50.690;4.400;2023-05-10T07:25:08;3.88;;;1.90;;
21492;SDS011;10908;50.690;4.400;2023-05-10T07:27:34;4.15;;;2.05;;
21492;SDS011;10908;50.690;4.400;2023-05-10T07:30:00;4.20;;;1.67;;
21492;SDS011;10908;50.690;4.400;2023-05-10T07:32:26;5.30;;;1.95;;
21492;SDS011;10908;50.690;4.400;2023-05-10T07:34:52;4.65;;;2.13;;
21492;SDS011;10908;50.690;4.400;2023-05-10T07:37:17;8.52;;;2.30;;
21492;SDS011;10908;50.690;4.400;2023-05-10T07:39:43;5.47;;;2.13;;
21492;SDS011;10908;50.690;4.400;2023-05-10T07:42:09;6.43;;;1.92;;
21492;SDS011;10908;50.690;4.400;2023-05-10T07:44:34;5.65;;;2.60;;
21492;SDS011;10908;50.690;4.400;2023-05-10T07:47:00;4.70;;;2.40;;
21492;SDS011;10908;50.690;4.400;2023-05-10T07:49:26;4.65;;;1.70;;
21492;SDS011;10908;50.690;4.400;2023-05-10T07:51:51;4.40;;;1.55;;
21492;SDS011;10908;50.690;4.400;2023-05-10T07:54:17;3.70;;;1.35;;
21492;SDS011;10908;50.690;4.400;2023-05-10T07:56:43;3.72;;;1.33;;
21492;SDS011;10908;50.690;4.400;2023-05-10T07:59:15;4.53;;;1.55;;
21492;SDS011;10908;50.690;4.400;2023-05-10T08:01:42;2.67;;;1.10;;
21492;SDS011;10908;50.690;4.400;2023-05-10T08:04:08;4.18;;;1.05;;
21492;SDS011;10908;50.690;4.400;2023-05-10T08:06:34;2.88;;;1.10;;
21492;SDS011;10908;50.690;4.400;2023-05-10T08:09:00;3.00;;;1.08;;
21492;SDS011;10908;50.690;4.400;2023-05-10T08:11:26;2.33;;;0.90;;
21492;SDS011;10908;50.690;4.400;2023-05-10T08:13:54;2.53;;;0.80;;
21492;SDS011;10908;50.690;4.400;2023-05-10T08:16:20;3.08;;;1.20;;
21492;SDS011;10908;50.690;4.400;2023-05-10T08:18:46;2.17;;;0.80;;
21492;SDS011;10908;50.690;4.400;2023-05-10T08:21:12;2.63;;;0.90;;
21492;SDS011;10908;50.690;4.400;2023-05-10T08:23:38;2.80;;;0.90;;
21492;SDS011;10908;50.690;4.400;2023-05-10T08:26:04;2.83;;;0.80;;
21492;SDS011;10908;50.690;4.400;2023-05-10T08:28:30;2.45;;;0.90;;
21492;SDS011;10908;50.690;4.400;2023-05-10T08:30:56;2.40;;;0.80;;
21492;SDS011;10908;50.690;4.400;2023-05-10T08:33:22;2.67;;;0.90;;
21492;SDS011;10908;50.690;4.400;2023-05-10T08:35:47;2.28;;;0.85;;
21492;SDS011;10908;50.690;4.400;2023-05-10T08:38:13;4.53;;;1.10;;
21492;SDS011;10908;50.690;4.400;2023-05-10T08:40:42;2.72;;;0.95;;
21492;SDS011;10908;50.690;4.400;2023-05-10T08:43:10;2.85;;;1.00;;
21492;SDS011;10908;50.690;4.400;2023-05-10T08:45:41;2.67;;;0.93;;
21492;SDS011;10908;50.690;4.400;2023-05-10T08:48:08;3.40;;;1.10;;
21492;SDS011;10908;50.690;4.400;2023-05-10T08:50:35;1.95;;;0.90;;
21492;SDS011;10908;50.690;4.400;2023-05-10T08:53:04;3.17;;;0.98;;
21492;SDS011;10908;50.690;4.400;2023-05-10T08:55:35;2.80;;;1.02;;
21492;SDS011;10908;50.690;4.400;2023-05-10T08:58:03;2.88;;;1.20;;
21492;SDS011;10908;50.690;4.400;2023-05-10T09:00:29;3.28;;;1.48;;
21492;SDS011;10908;50.690;4.400;2023-05-10T09:02:56;3.22;;;1.20;;
21492;SDS011;10908;50.690;4.400;2023-05-10T09:05:23;2.45;;;1.10;;
21492;SDS011;10908;50.690;4.400;2023-05-10T09:07:49;8.05;;;1.33;;
21492;SDS011;10908;50.690;4.400;2023-05-10T09:10:15;2.50;;;1.00;;
21492;SDS011;10908;50.690;4.400;2023-05-10T09:12:41;3.75;;;1.10;;
21492;SDS011;10908;50.690;4.400;2023-05-10T09:15:09;3.55;;;1.20;;
21492;SDS011;10908;50.690;4.400;2023-05-10T09:17:35;3.00;;;1.27;;
21492;SDS011;10908;50.690;4.400;2023-05-10T09:20:03;4.45;;;1.30;;
21492;SDS011;10908;50.690;4.400;2023-05-10T09:22:30;3.72;;;1.40;;
21492;SDS011;10908;50.690;4.400;2023-05-10T09:25:09;4.13;;;1.40;;
21492;SDS011;10908;50.690;4.400;2023-05-10T09:27:45;5.65;;;1.60;;
21492;SDS011;10908;50.690;4.400;2023-05-10T09:30:30;3.53;;;1.65;;
21492;SDS011;10908;50.690;4.400;2023-05-10T09:32:56;3.55;;;1.63;;
21492;SDS011;10908;50.690;4.400;2023-05-10T09:35:24;4.00;;;1.80;;
21492;SDS011;10908;50.690;4.400;2023-05-10T09:37:52;3.53;;;1.65;;
21492;SDS011;10908;50.690;4.400;2023-05-10T09:40:21;3.60;;;1.60;;
21492;SDS011;10908;50.690;4.400;2023-05-10T09:45:19;3.53;;;1.33;;
21492;SDS011;10908;50.690;4.400;2023-05-10T09:47:45;3.55;;;1.65;;
21492;SDS011;10908;50.690;4.400;2023-05-10T09:50:11;3.42;;;1.40;;
21492;SDS011;10908;50.690;4.400;2023-05-10T09:52:45;3.22;;;1.00;;
21492;SDS011;10908;50.690;4.400;2023-05-10T09:55:12;3.03;;;1.20;;
21492;SDS011;10908;50.690;4.400;2023-05-10T09:57:40;4.60;;;1.30;;
21492;SDS011;10908;50.690;4.400;2023-05-10T10:00:06;2.80;;;1.10;;
21492;SDS011;10908;50.690;4.400;2023-05-10T10:02:32;3.17;;;0.93;;
21492;SDS011;10908;50.690;4.400;2023-05-10T10:05:00;3.05;;;1.05;;
21492;SDS011;10908;50.690;4.400;2023-05-10T10:07:27;2.83;;;0.80;;
21492;SDS011;10908;50.690;4.400;2023-05-10T10:09:54;3.47;;;1.00;;
21492;SDS011;10908;50.690;4.400;2023-05-10T10:12:20;4.78;;;1.13;;
21492;SDS011;10908;50.690;4.400;2023-05-10T10:14:46;4.10;;;1.05;;
21492;SDS011;10908;50.690;4.400;2023-05-10T10:17:16;2.78;;;1.08;;
21492;SDS011;10908;50.690;4.400;2023-05-10T10:19:42;3.17;;;1.05;;
21492;SDS011;10908;50.690;4.400;2023-05-10T10:22:08;2.63;;;1.05;;
21492;SDS011;10908;50.690;4.400;2023-05-10T10:24:37;4.28;;;1.40;;
21492;SDS011;10908;50.690;4.400;2023-05-10T10:27:09;3.33;;;1.10;;
21492;SDS011;10908;50.690;4.400;2023-05-10T10:29:52;3.42;;;1.30;;
21492;SDS011;10908;50.690;4.400;2023-05-10T10:32:54;3.17;;;1.17;;
21492;SDS011;10908;50.690;4.400;2023-05-10T10:35:32;3.28;;;1.10;;
21492;SDS011;10908;50.690;4.400;2023-05-10T10:37:58;3.08;;;1.13;;
21492;SDS011;10908;50.690;4.400;2023-05-10T10:40:26;2.50;;;0.90;;
21492;SDS011;10908;50.690;4.400;2023-05-10T10:42:56;2.67;;;1.20;;
21492;SDS011;10908;50.690;4.400;2023-05-10T10:45:23;3.35;;;1.00;;
21492;SDS011;10908;50.690;4.400;2023-05-10T10:48:19;2.45;;;1.05;;
21492;SDS011;10908;50.690;4.400;2023-05-10T10:50:47;2.28;;;0.90;;
21492;SDS011;10908;50.690;4.400;2023-05-10T10:53:12;2.45;;;0.80;;
21492;SDS011;10908;50.690;4.400;2023-05-10T10:55:45;2.63;;;1.02;;
21492;SDS011;10908;50.690;4.400;2023-05-10T10:58:15;2.35;;;0.80;;
21492;SDS011;10908;50.690;4.400;2023-05-10T11:03:39;2.53;;;0.95;;
21492;SDS011;10908;50.690;4.400;2023-05-10T11:06:05;2.22;;;0.80;;
21492;SDS011;10908;50.690;4.400;2023-05-10T11:08:32;3.20;;;1.02;;
21492;SDS011;10908;50.690;4.400;2023-05-10T11:16:10;3.88;;;1.10;;
21492;SDS011;10908;50.690;4.400;2023-05-10T11:18:36;5.18;;;1.50;;
21492;SDS011;10908;50.690;4.400;2023-05-10T11:21:02;2.38;;;0.93;;
21492;SDS011;10908;50.690;4.400;2023-05-10T11:23:47;2.95;;;1.25;;
21492;SDS011;10908;50.690;4.400;2023-05-10T11:26:14;2.90;;;1.20;;
21492;SDS011;10908;50.690;4.400;2023-05-10T11:31:13;3.33;;;1.30;;
21492;SDS011;10908;50.690;4.400;2023-05-10T11:33:43;3.10;;;1.08;;
21492;SDS011;10908;50.690;4.400;2023-05-10T11:36:14;5.03;;;1.38;;
21492;SDS011;10908;50.690;4.400;2023-05-10T11:38:40;2.80;;;1.30;;
21492;SDS011;10908;50.690;4.400;2023-05-10T11:41:08;2.65;;;1.20;;
21492;SDS011;10908;50.690;4.400;2023-05-10T11:43:34;3.20;;;1.40;;
21492;SDS011;10908;50.690;4.400;2023-05-10T11:46:03;4.50;;;1.42;;
21492;SDS011;10908;50.690;4.400;2023-05-10T11:48:30;3.00;;;1.50;;
21492;SDS011;10908;50.690;4.400;2023-05-10T11:50:56;3.10;;;1.48;;
21492;SDS011;10908;50.690;4.400;2023-05-10T11:53:22;2.63;;;1.40;;
21492;SDS011;10908;50.690;4.400;2023-05-10T11:55:50;3.13;;;1.40;;
21492;SDS011;10908;50.690;4.400;2023-05-10T11:58:17;3.95;;;1.42;;
21492;SDS011;10908;50.690;4.400;2023-05-10T12:00:43;3.53;;;1.75;;
21492;SDS011;10908;50.690;4.400;2023-05-10T12:03:10;3.22;;;1.40;;
21492;SDS011;10908;50.690;4.400;2023-05-10T12:05:36;3.83;;;1.85;;
21492;SDS011;10908;50.690;4.400;2023-05-10T12:08:12;3.55;;;1.98;;
21492;SDS011;10908;50.690;4.400;2023-05-10T12:10:39;3.67;;;1.80;;
21492;SDS011;10908;50.690;4.400;2023-05-10T12:13:04;4.43;;;1.52;;
21492;SDS011;10908;50.690;4.400;2023-05-10T12:15:32;4.35;;;1.40;;
21492;SDS011;10908;50.690;4.400;2023-05-10T12:17:57;3.40;;;1.58;;
21492;SDS011;10908;50.690;4.400;2023-05-10T12:20:23;2.95;;;1.40;;
21492;SDS011;10908;50.690;4.400;2023-05-10T12:25:16;3.30;;;1.50;;
21492;SDS011;10908;50.690;4.400;2023-05-10T12:27:50;2.97;;;1.50;;
21492;SDS011;10908;50.690;4.400;2023-05-10T12:30:24;4.40;;;1.50;;
21492;SDS011;10908;50.690;4.400;2023-05-10T12:32:51;3.65;;;1.67;;
21492;SDS011;10908;50.690;4.400;2023-05-10T12:35:17;3.83;;;1.60;;
21492;SDS011;10908;50.690;4.400;2023-05-10T12:37:47;4.13;;;1.80;;
21492;SDS011;10908;50.690;4.400;2023-05-10T12:40:13;3.40;;;1.60;;
21492;SDS011;10908;50.690;4.400;2023-05-10T12:42:38;2.95;;;1.50;;
21492;SDS011;10908;50.690;4.400;2023-05-10T12:45:05;3.75;;;1.67;;
21492;SDS011;10908;50.690;4.400;2023-05-10T12:47:32;3.95;;;1.80;;
21492;SDS011;10908;50.690;4.400;2023-05-10T12:49:59;4.53;;;1.80;;
21492;SDS011;10908;50.690;4.400;2023-05-10T12:52:25;6.10;;;1.90;;
21492;SDS011;10908;50.690;4.400;2023-05-10T12:54:52;4.75;;;1.83;;
21492;SDS011;10908;50.690;4.400;2023-05-10T12:57:18;4.55;;;2.10;;
21492;SDS011;10908;50.690;4.400;2023-05-10T12:59:45;3.90;;;1.80;;
21492;SDS011;10908;50.690;4.400;2023-05-10T13:02:10;4.47;;;1.90;;
21492;SDS011;10908;50.690;4.400;2023-05-10T13:04:36;4.50;;;1.88;;
21492;SDS011;10908;50.690;4.400;2023-05-10T13:07:07;3.60;;;1.85;;
21492;SDS011;10908;50.690;4.400;2023-05-10T13:09:33;6.05;;;2.15;;
21492;SDS011;10908;50.690;4.400;2023-05-10T13:11:59;5.05;;;2.72;;
21492;SDS011;10908;50.690;4.400;2023-05-10T13:14:25;5.30;;;2.63;;
21492;SDS011;10908;50.690;4.400;2023-05-10T13:16:51;5.50;;;2.60;;
21492;SDS011;10908;50.690;4.400;2023-05-10T13:19:17;4.88;;;2.97;;
21492;SDS011;10908;50.690;4.400;2023-05-10T13:21:43;6.10;;;3.15;;
21492;SDS011;10908;50.690;4.400;2023-05-10T13:24:09;8.13;;;3.35;;
21492;SDS011;10908;50.690;4.400;2023-05-10T13:26:35;6.18;;;3.45;;
21492;SDS011;10908;50.690;4.400;2023-05-10T13:29:02;6.78;;;2.97;;
21492;SDS011;10908;50.690;4.400;2023-05-10T13:31:28;8.27;;;3.53;;
21492;SDS011;10908;50.690;4.400;2023-05-10T13:33:54;6.75;;;3.30;;
21492;SDS011;10908;50.690;4.400;2023-05-10T13:36:20;6.95;;;3.45;;
21492;SDS011;10908;50.690;4.400;2023-05-10T13:38:46;9.35;;;3.63;;
21492;SDS011;10908;50.690;4.400;2023-05-10T13:41:11;7.80;;;3.65;;
21492;SDS011;10908;50.690;4.400;2023-05-10T13:43:37;7.32;;;3.70;;
21492;SDS011;10908;50.690;4.400;2023-05-10T13:46:02;8.65;;;3.85;;
21492;SDS011;10908;50.690;4.400;2023-05-10T13:48:28;7.03;;;3.60;;
21492;SDS011;10908;50.690;4.400;2023-05-10T13:50:54;7.55;;;3.15;;
21492;SDS011;10908;50.690;4.400;2023-05-10T13:53:20;5.30;;;2.60;;
21492;SDS011;10908;50.690;4.400;2023-05-10T13:55:46;6.97;;;2.95;;
21492;SDS011;10908;50.690;4.400;2023-05-10T13:58:12;5.32;;;2.20;;
21492;SDS011;10908;50.690;4.400;2023-05-10T14:00:38;5.10;;;2.47;;
21492;SDS011;10908;50.690;4.400;2023-05-10T14:03:03;4.82;;;2.28;;
21492;SDS011;10908;50.690;4.400;2023-05-10T14:05:31;6.75;;;2.85;;
21492;SDS011;10908;50.690;4.400;2023-05-10T14:07:56;5.88;;;2.47;;
21492;SDS011;10908;50.690;4.400;2023-05-10T14:10:22;6.05;;;2.50;;
21492;SDS011;10908;50.690;4.400;2023-05-10T14:12:49;6.35;;;2.95;;
21492;SDS011;10908;50.690;4.400;2023-05-10T14:15:15;6.05;;;3.20;;
21492;SDS011;10908;50.690;4.400;2023-05-10T14:17:41;7.20;;;3.35;;
21492;SDS011;10908;50.690;4.400;2023-05-10T14:20:07;7.95;;;3.67;;
21492;SDS011;10908;50.690;4.400;2023-05-10T14:22:33;7.45;;;3.50;;
21492;SDS011;10908;50.690;4.400;2023-05-10T14:24:59;6.97;;;3.33;;
21492;SDS011;10908;50.690;4.400;2023-05-10T14:27:25;8.20;;;3.83;;
21492;SDS011;10908;50.690;4.400;2023-05-10T14:29:51;13.38;;;4.65;;
21492;SDS011;10908;50.690;4.400;2023-05-10T14:32:18;9.25;;;5.10;;
21492;SDS011;10908;50.690;4.400;2023-05-10T14:34:43;10.60;;;5.47;;
21492;SDS011;10908;50.690;4.400;2023-05-10T14:37:10;14.25;;;6.00;;
21492;SDS011;10908;50.690;4.400;2023-05-10T14:39:36;12.10;;;5.80;;
21492;SDS011;10908;50.690;4.400;2023-05-10T14:42:02;12.02;;;6.28;;
21492;SDS011;10908;50.690;4.400;2023-05-10T14:44:28;12.80;;;6.40;;
21492;SDS011;10908;50.690;4.400;2023-05-10T14:46:54;13.45;;;6.68;;
21492;SDS011;10908;50.690;4.400;2023-05-10T14:49:20;13.43;;;6.75;;
21492;SDS011;10908;50.690;4.400;2023-05-10T14:51:47;14.27;;;7.10;;
21492;SDS011;10908;50.690;4.400;2023-05-10T14:54:13;15.60;;;7.95;;
21492;SDS011;10908;50.690;4.400;2023-05-10T14:56:39;16.35;;;8.10;;
21492;SDS011;10908;50.690;4.400;2023-05-10T14:59:06;19.30;;;8.63;;
21492;SDS011;10908;50.690;4.400;2023-05-10T15:01:32;17.67;;;9.05;;
21492;SDS011;10908;50.690;4.400;2023-05-10T15:04:00;20.10;;;9.25;;
21492;SDS011;10908;50.690;4.400;2023-05-10T15:06:32;19.33;;;9.20;;
21492;SDS011;10908;50.690;4.400;2023-05-10T15:08:59;17.90;;;8.45;;
21492;SDS011;10908;50.690;4.400;2023-05-10T15:11:26;16.55;;;8.80;;
21492;SDS011;10908;50.690;4.400;2023-05-10T15:13:52;14.73;;;8.63;;
21492;SDS011;10908;50.690;4.400;2023-05-10T15:16:18;18.92;;;9.60;;
21492;SDS011;10908;50.690;4.400;2023-05-10T15:18:43;17.58;;;9.63;;